sensor_id;sensor_type;location;lat;lon;timestamp;temperature;humidity
16867;DHT22;8550;52.596;13.320;2023-04-01T00:03:41;10.10;99.90
16867;DHT22;8550;52.596;13.320;2023-04-01T00:08:43;10.10;99.90
16867;DHT22;8550;52.596;13.320;2023-04-01T00:13:46;10.20;99.90
16867;DHT22;8550;52.596;13.320;2023-04-01T00:18:50;10.20;99.90
16867;DHT22;8550;52.596;13.320;2023-04-01T00:23:52;10.10;99.90
16867;DHT22;8550;52.596;13.320;2023-04-01T00:28:54;10.00;99.90
16867;DHT22;8550;52.596;13.320;2023-04-01T00:33:57;10.10;99.90
16867;DHT22;8550;52.596;13.320;2023-04-01T00:38:59;10.10;99.90
16867;DHT22;8550;52.596;13.320;2023-04-01T00:44:19;10.10;99.90
16867;DHT22;8550;52.596;13.320;2023-04-01T00:49:25;10.10;99.90
16867;DHT22;8550;52.596;13.320;2023-04-01T00:54:30;10.10;99.90
16867;DHT22;8550;52.596;13.320;2023-04-01T00:59:34;10.00;99.90
16867;DHT22;8550;52.596;13.320;2023-04-01T01:04:38;10.10;99.90
16867;DHT22;8550;52.596;13.320;2023-04-01T01:09:46;10.10;99.90
16867;DHT22;8550;52.596;13.320;2023-04-01T01:14:57;10.10;99.90
16867;DHT22;8550;52.596;13.320;2023-04-01T01:25:47;10.10;99.90
16867;DHT22;8550;52.596;13.320;2023-04-01T01:30:57;10.00;99.90
16867;DHT22;8550;52.596;13.320;2023-04-01T01:36:05;10.10;99.90
16867;DHT22;8550;52.596;13.320;2023-04-01T01:41:11;10.00;99.90
16867;DHT22;8550;52.596;13.320;2023-04-01T01:46:17;10.00;99.90
16867;DHT22;8550;52.596;13.320;2023-04-01T01:51:23;10.00;99.90
16867;DHT22;8550;52.596;13.320;2023-04-01T01:56:28;10.10;99.90
16867;DHT22;8550;52.596;13.320;2023-04-01T02:01:33;10.00;99.90
16867;DHT22;8550;52.596;13.320;2023-04-01T02:06:42;10.10;99.90
16867;DHT22;8550;52.596;13.320;2023-04-01T02:11:47;10.10;99.90
16867;DHT22;8550;52.596;13.320;2023-04-01T02:16:54;10.00;99.90
16867;DHT22;8550;52.596;13.320;2023-04-01T02:22:02;10.00;99.90
16867;DHT22;8550;52.596;13.320;2023-04-01T02:27:05;10.00;99.90
16867;DHT22;8550;52.596;13.320;2023-04-01T02:32:08;10.00;99.90
16867;DHT22;8550;52.596;13.320;2023-04-01T02:37:13;9.90;99.90
16867;DHT22;8550;52.596;13.320;2023-04-01T02:42:15;9.90;99.90
16867;DHT22;8550;52.596;13.320;2023-04-01T02:47:17;10.00;99.90
16867;DHT22;8550;52.596;13.320;2023-04-01T02:52:20;9.90;99.90
16867;DHT22;8550;52.596;13.320;2023-04-01T02:57:22;10.00;99.90
16867;DHT22;8550;52.596;13.320;2023-04-01T03:02:24;10.00;99.90
16867;DHT22;8550;52.596;13.320;2023-04-01T03:07:28;9.90;99.90
16867;DHT22;8550;52.596;13.320;2023-04-01T03:12:29;9.90;99.90
16867;DHT22;8550;52.596;13.320;2023-04-01T03:17:31;9.80;99.90
16867;DHT22;8550;52.596;13.320;2023-04-01T03:22:35;9.90;99.90
16867;DHT22;8550;52.596;13.320;2023-04-01T03:27:37;9.90;99.90
16867;DHT22;8550;52.596;13.320;2023-04-01T03:32:39;9.90;99.90
16867;DHT22;8550;52.596;13.320;2023-04-01T03:37:42;9.90;99.90
16867;DHT22;8550;52.596;13.320;2023-04-01T03:42:44;9.90;99.90
16867;DHT22;8550;52.596;13.320;2023-04-01T03:47:46;9.80;99.90
16867;DHT22;8550;52.596;13.320;2023-04-01T03:52:49;9.90;99.90
16867;DHT22;8550;52.596;13.320;2023-04-01T03:57:51;9.90;99.90
16867;DHT22;8550;52.596;13.320;2023-04-01T04:02:53;9.80;99.90
16867;DHT22;8550;52.596;13.320;2023-04-01T04:07:57;9.80;99.90
16867;DHT22;8550;52.596;13.320;2023-04-01T04:12:59;9.80;99.90
16867;DHT22;8550;52.596;13.320;2023-04-01T04:18:01;9.80;99.90
16867;DHT22;8550;52.596;13.320;2023-04-01T04:23:04;9.90;99.90
16867;DHT22;8550;52.596;13.320;2023-04-01T04:28:06;9.90;99.90
16867;DHT22;8550;52.596;13.320;2023-04-01T04:33:08;9.90;99.90
16867;DHT22;8550;52.596;13.320;2023-04-01T04:38:11;9.90;99.90
16867;DHT22;8550;52.596;13.320;2023-04-01T04:43:15;9.90;99.90
16867;DHT22;8550;52.596;13.320;2023-04-01T04:48:17;9.90;99.90
16867;DHT22;8550;52.596;13.320;2023-04-01T04:53:22;9.90;99.90
16867;DHT22;8550;52.596;13.320;2023-04-01T04:58:26;9.90;99.90
16867;DHT22;8550;52.596;13.320;2023-04-01T05:03:28;10.00;99.90
16867;DHT22;8550;52.596;13.320;2023-04-01T05:08:31;10.00;99.90
16867;DHT22;8550;52.596;13.320;2023-04-01T05:13:34;10.00;99.90
16867;DHT22;8550;52.596;13.320;2023-04-01T05:18:36;10.00;99.90
16867;DHT22;8550;52.596;13.320;2023-04-01T05:23:39;10.10;99.90
16867;DHT22;8550;52.596;13.320;2023-04-01T05:28:41;10.10;99.90
16867;DHT22;8550;52.596;13.320;2023-04-01T05:33:43;10.10;99.90
16867;DHT22;8550;52.596;13.320;2023-04-01T05:38:47;10.10;99.90
16867;DHT22;8550;52.596;13.320;2023-04-01T05:43:49;10.10;99.90
16867;DHT22;8550;52.596;13.320;2023-04-01T05:48:51;10.20;99.90
16867;DHT22;8550;52.596;13.320;2023-04-01T05:53:54;10.30;99.90
16867;DHT22;8550;52.596;13.320;2023-04-01T05:58:56;10.30;99.90
16867;DHT22;8550;52.596;13.320;2023-04-01T06:03:58;10.40;99.90
16867;DHT22;8550;52.596;13.320;2023-04-01T06:09:07;10.30;99.90
16867;DHT22;8550;52.596;13.320;2023-04-01T06:14:23;10.40;99.90
16867;DHT22;8550;52.596;13.320;2023-04-01T06:19:36;10.40;99.90
16867;DHT22;8550;52.596;13.320;2023-04-01T06:24:53;10.40;99.90
16867;DHT22;8550;52.596;13.320;2023-04-01T06:30:16;10.50;99.90
16867;DHT22;8550;52.596;13.320;2023-04-01T06:35:38;10.50;99.90
16867;DHT22;8550;52.596;13.320;2023-04-01T06:41:05;10.60;99.90
16867;DHT22;8550;52.596;13.320;2023-04-01T06:46:16;10.60;99.90
16867;DHT22;8550;52.596;13.320;2023-04-01T06:51:27;10.70;99.90
16867;DHT22;8550;52.596;13.320;2023-04-01T06:56:37;10.70;99.90
16867;DHT22;8550;52.596;13.320;2023-04-01T07:01:44;10.60;99.90
16867;DHT22;8550;52.596;13.320;2023-04-01T07:06:50;10.60;99.90
16867;DHT22;8550;52.596;13.320;2023-04-01T07:12:00;10.80;99.90
16867;DHT22;8550;52.596;13.320;2023-04-01T07:17:07;10.70;99.90
16867;DHT22;8550;52.596;13.320;2023-04-01T07:22:19;10.70;99.90
16867;DHT22;8550;52.596;13.320;2023-04-01T07:27:24;10.80;99.90
16867;DHT22;8550;52.596;13.320;2023-04-01T07:32:35;10.80;99.90
16867;DHT22;8550;52.596;13.320;2023-04-01T07:37:47;10.90;99.90
16867;DHT22;8550;52.596;13.320;2023-04-01T07:43:13;10.90;99.90
16867;DHT22;8550;52.596;13.320;2023-04-01T07:48:23;10.80;99.90
16867;DHT22;8550;52.596;13.320;2023-04-01T07:53:32;10.90;99.90
16867;DHT22;8550;52.596;13.320;2023-04-01T07:58:49;11.00;99.90
16867;DHT22;8550;52.596;13.320;2023-04-01T08:04:12;11.00;99.90
16867;DHT22;8550;52.596;13.320;2023-04-01T08:09:27;10.60;99.90
16867;DHT22;8550;52.596;13.320;2023-04-01T08:14:38;10.30;99.90
16867;DHT22;8550;52.596;13.320;2023-04-01T08:19:56;10.10;99.90
16867;DHT22;8550;52.596;13.320;2023-04-01T08:25:04;10.10;99.90
16867;DHT22;8550;52.596;13.320;2023-04-01T08:30:18;10.20;99.90
16867;DHT22;8550;52.596;13.320;2023-04-01T08:35:27;10.30;99.90
16867;DHT22;8550;52.596;13.320;2023-04-01T08:40:51;10.30;99.90
16867;DHT22;8550;52.596;13.320;2023-04-01T08:46:28;10.00;99.90
16867;DHT22;8550;52.596;13.320;2023-04-01T08:52:15;10.20;99.90
16867;DHT22;8550;52.596;13.320;2023-04-01T08:57:35;10.10;99.90
16867;DHT22;8550;52.596;13.320;2023-04-01T09:03:02;10.20;99.90
16867;DHT22;8550;52.596;13.320;2023-04-01T09:08:25;10.40;99.90
16867;DHT22;8550;52.596;13.320;2023-04-01T09:13:44;10.40;99.90
16867;DHT22;8550;52.596;13.320;2023-04-01T09:19:24;10.10;99.90
16867;DHT22;8550;52.596;13.320;2023-04-01T09:30:06;10.10;99.90
16867;DHT22;8550;52.596;13.320;2023-04-01T09:35:21;10.20;99.90
16867;DHT22;8550;52.596;13.320;2023-04-01T09:40:35;10.40;99.90
16867;DHT22;8550;52.596;13.320;2023-04-01T09:45:47;10.70;99.90
16867;DHT22;8550;52.596;13.320;2023-04-01T09:51:00;10.50;99.90
16867;DHT22;8550;52.596;13.320;2023-04-01T10:02:05;10.60;99.90
16867;DHT22;8550;52.596;13.320;2023-04-01T10:07:43;10.60;99.90
16867;DHT22;8550;52.596;13.320;2023-04-01T10:13:26;10.30;99.90
16867;DHT22;8550;52.596;13.320;2023-04-01T10:18:49;10.00;99.90
16867;DHT22;8550;52.596;13.320;2023-04-01T10:24:25;10.10;99.90
16867;DHT22;8550;52.596;13.320;2023-04-01T10:41:20;10.00;99.90
16867;DHT22;8550;52.596;13.320;2023-04-01T11:10:28;9.50;99.90
16867;DHT22;8550;52.596;13.320;2023-04-01T11:15:48;9.70;99.90
16867;DHT22;8550;52.596;13.320;2023-04-01T11:21:22;9.60;99.90
16867;DHT22;8550;52.596;13.320;2023-04-01T11:26:49;9.40;99.90
16867;DHT22;8550;52.596;13.320;2023-04-01T11:31:58;9.30;99.90
16867;DHT22;8550;52.596;13.320;2023-04-01T11:37:10;9.40;99.90
16867;DHT22;8550;52.596;13.320;2023-04-01T11:42:27;9.50;99.90
16867;DHT22;8550;52.596;13.320;2023-04-01T11:48:03;9.50;99.90
16867;DHT22;8550;52.596;13.320;2023-04-01T11:53:19;9.50;99.90
16867;DHT22;8550;52.596;13.320;2023-04-01T11:58:57;9.30;99.90
16867;DHT22;8550;52.596;13.320;2023-04-01T12:04:41;9.20;99.90
16867;DHT22;8550;52.596;13.320;2023-04-01T12:09:52;9.20;99.90
16867;DHT22;8550;52.596;13.320;2023-04-01T12:15:15;9.20;99.90
16867;DHT22;8550;52.596;13.320;2023-04-01T12:20:34;9.00;99.90
16867;DHT22;8550;52.596;13.320;2023-04-01T12:26:01;9.10;99.90
16867;DHT22;8550;52.596;13.320;2023-04-01T12:31:23;9.00;99.90
16867;DHT22;8550;52.596;13.320;2023-04-01T12:36:44;8.90;99.90
16867;DHT22;8550;52.596;13.320;2023-04-01T12:41:56;9.10;99.90
16867;DHT22;8550;52.596;13.320;2023-04-01T12:47:26;8.90;99.90
16867;DHT22;8550;52.596;13.320;2023-04-01T12:52:42;8.90;99.90
16867;DHT22;8550;52.596;13.320;2023-04-01T13:03:53;9.10;99.90
16867;DHT22;8550;52.596;13.320;2023-04-01T13:09:08;9.00;99.90
16867;DHT22;8550;52.596;13.320;2023-04-01T13:14:52;8.90;99.90
16867;DHT22;8550;52.596;13.320;2023-04-01T13:20:03;8.80;99.90
16867;DHT22;8550;52.596;13.320;2023-04-01T13:25:19;8.70;99.90
16867;DHT22;8550;52.596;13.320;2023-04-01T13:30:25;8.80;99.90
16867;DHT22;8550;52.596;13.320;2023-04-01T13:35:38;9.00;99.90
16867;DHT22;8550;52.596;13.320;2023-04-01T13:40:50;9.00;99.90
16867;DHT22;8550;52.596;13.320;2023-04-01T13:46:12;8.70;99.90
16867;DHT22;8550;52.596;13.320;2023-04-01T13:51:35;8.70;99.90
16867;DHT22;8550;52.596;13.320;2023-04-01T13:56:49;8.60;99.90
16867;DHT22;8550;52.596;13.320;2023-04-01T14:01:59;8.60;99.90
16867;DHT22;8550;52.596;13.320;2023-04-01T14:07:31;8.70;99.90
16867;DHT22;8550;52.596;13.320;2023-04-01T14:12:39;8.90;99.90
16867;DHT22;8550;52.596;13.320;2023-04-01T14:17:50;8.80;99.90
16867;DHT22;8550;52.596;13.320;2023-04-01T14:23:13;8.40;99.90
16867;DHT22;8550;52.596;13.320;2023-04-01T14:28:25;8.30;99.90
16867;DHT22;8550;52.596;13.320;2023-04-01T14:33:37;8.40;99.90
16867;DHT22;8550;52.596;13.320;2023-04-01T14:38:54;8.20;99.90
16867;DHT22;8550;52.596;13.320;2023-04-01T14:44:17;8.20;99.90
16867;DHT22;8550;52.596;13.320;2023-04-01T14:49:22;8.30;99.90
16867;DHT22;8550;52.596;13.320;2023-04-01T14:54:33;8.20;99.90
16867;DHT22;8550;52.596;13.320;2023-04-01T14:59:40;8.30;99.90
16867;DHT22;8550;52.596;13.320;2023-04-01T15:04:49;8.20;99.90
16867;DHT22;8550;52.596;13.320;2023-04-01T15:10:00;8.00;99.90
16867;DHT22;8550;52.596;13.320;2023-04-01T15:15:17;8.00;99.90
16867;DHT22;8550;52.596;13.320;2023-04-01T15:20:59;7.80;99.90
16867;DHT22;8550;52.596;13.320;2023-04-01T15:26:30;7.70;99.90
16867;DHT22;8550;52.596;13.320;2023-04-01T15:31:40;7.60;99.90
16867;DHT22;8550;52.596;13.320;2023-04-01T15:36:52;7.50;99.90
16867;DHT22;8550;52.596;13.320;2023-04-01T15:42:14;7.70;99.90
16867;DHT22;8550;52.596;13.320;2023-04-01T15:47:35;7.60;99.90
16867;DHT22;8550;52.596;13.320;2023-04-01T15:52:44;7.70;99.90
16867;DHT22;8550;52.596;13.320;2023-04-01T15:58:04;7.60;99.90
16867;DHT22;8550;52.596;13.320;2023-04-01T16:03:28;7.50;99.90
16867;DHT22;8550;52.596;13.320;2023-04-01T16:08:50;7.30;99.90
16867;DHT22;8550;52.596;13.320;2023-04-01T16:14:09;7.30;99.90
16867;DHT22;8550;52.596;13.320;2023-04-01T16:19:27;7.20;99.90
16867;DHT22;8550;52.596;13.320;2023-04-01T16:24:35;7.40;99.90
16867;DHT22;8550;52.596;13.320;2023-04-01T16:29:46;7.40;99.90
16867;DHT22;8550;52.596;13.320;2023-04-01T16:35:00;7.30;99.90
16867;DHT22;8550;52.596;13.320;2023-04-01T16:40:14;7.10;99.90
16867;DHT22;8550;52.596;13.320;2023-04-01T16:45:26;7.00;99.90
16867;DHT22;8550;52.596;13.320;2023-04-01T16:50:44;6.80;99.90
16867;DHT22;8550;52.596;13.320;2023-04-01T16:55:50;6.80;99.90
16867;DHT22;8550;52.596;13.320;2023-04-01T17:01:00;6.80;99.90
16867;DHT22;8550;52.596;13.320;2023-04-01T17:06:17;6.60;99.90
16867;DHT22;8550;52.596;13.320;2023-04-01T17:11:25;6.60;99.90
16867;DHT22;8550;52.596;13.320;2023-04-01T17:22:16;6.40;99.90
16867;DHT22;8550;52.596;13.320;2023-04-01T17:27:31;6.40;99.90
16867;DHT22;8550;52.596;13.320;2023-04-01T17:32:46;6.30;99.90
16867;DHT22;8550;52.596;13.320;2023-04-01T17:37:57;6.20;99.90
16867;DHT22;8550;52.596;13.320;2023-04-01T17:43:10;6.30;99.90
16867;DHT22;8550;52.596;13.320;2023-04-01T17:48:21;6.10;99.90
16867;DHT22;8550;52.596;13.320;2023-04-01T17:53:33;6.00;99.90
16867;DHT22;8550;52.596;13.320;2023-04-01T17:58:44;5.90;99.90
16867;DHT22;8550;52.596;13.320;2023-04-01T18:09:36;5.80;99.90
16867;DHT22;8550;52.596;13.320;2023-04-01T18:20:29;5.70;99.90
16867;DHT22;8550;52.596;13.320;2023-04-01T18:25:35;5.70;99.90
16867;DHT22;8550;52.596;13.320;2023-04-01T18:30:41;5.60;99.90
16867;DHT22;8550;52.596;13.320;2023-04-01T18:35:49;5.60;99.90
16867;DHT22;8550;52.596;13.320;2023-04-01T18:41:06;5.60;99.90
16867;DHT22;8550;52.596;13.320;2023-04-01T18:46:16;5.50;99.90
16867;DHT22;8550;52.596;13.320;2023-04-01T18:51:25;5.50;99.90
16867;DHT22;8550;52.596;13.320;2023-04-01T18:56:30;5.50;99.90
16867;DHT22;8550;52.596;13.320;2023-04-01T19:01:38;5.50;99.90
16867;DHT22;8550;52.596;13.320;2023-04-01T19:06:49;5.40;99.90
16867;DHT22;8550;52.596;13.320;2023-04-01T19:12:10;5.40;99.90
16867;DHT22;8550;52.596;13.320;2023-04-01T19:17:25;5.40;99.90
16867;DHT22;8550;52.596;13.320;2023-04-01T19:22:42;5.30;99.90
16867;DHT22;8550;52.596;13.320;2023-04-01T19:27:50;5.30;99.90
16867;DHT22;8550;52.596;13.320;2023-04-01T19:33:01;5.20;99.90
16867;DHT22;8550;52.596;13.320;2023-04-01T19:38:14;5.20;99.90
16867;DHT22;8550;52.596;13.320;2023-04-01T19:43:30;5.10;99.90
16867;DHT22;8550;52.596;13.320;2023-04-01T19:48:44;5.00;99.90
16867;DHT22;8550;52.596;13.320;2023-04-01T19:53:57;4.90;99.90
16867;DHT22;8550;52.596;13.320;2023-04-01T19:59:05;4.90;99.90
16867;DHT22;8550;52.596;13.320;2023-04-01T20:04:15;4.90;99.90
16867;DHT22;8550;52.596;13.320;2023-04-01T20:09:40;4.80;99.90
16867;DHT22;8550;52.596;13.320;2023-04-01T20:14:47;4.90;99.90
16867;DHT22;8550;52.596;13.320;2023-04-01T20:19:56;4.90;99.90
16867;DHT22;8550;52.596;13.320;2023-04-01T20:25:09;4.80;99.90
16867;DHT22;8550;52.596;13.320;2023-04-01T20:30:26;4.70;99.90
16867;DHT22;8550;52.596;13.320;2023-04-01T20:35:39;4.80;99.90
16867;DHT22;8550;52.596;13.320;2023-04-01T20:40:50;4.70;99.90
16867;DHT22;8550;52.596;13.320;2023-04-01T20:45:57;4.70;99.90
16867;DHT22;8550;52.596;13.320;2023-04-01T20:51:05;4.70;99.90
16867;DHT22;8550;52.596;13.320;2023-04-01T21:01:40;4.60;99.90
16867;DHT22;8550;52.596;13.320;2023-04-01T21:06:51;4.60;99.90
16867;DHT22;8550;52.596;13.320;2023-04-01T21:12:04;4.50;99.90
16867;DHT22;8550;52.596;13.320;2023-04-01T21:17:11;4.50;99.90
16867;DHT22;8550;52.596;13.320;2023-04-01T21:22:36;4.40;99.90
16867;DHT22;8550;52.596;13.320;2023-04-01T21:27:55;4.40;99.90
16867;DHT22;8550;52.596;13.320;2023-04-01T21:33:08;4.40;99.90
16867;DHT22;8550;52.596;13.320;2023-04-01T21:38:29;4.40;99.90
16867;DHT22;8550;52.596;13.320;2023-04-01T21:44:10;4.40;99.90
16867;DHT22;8550;52.596;13.320;2023-04-01T21:49:33;4.40;99.90
16867;DHT22;8550;52.596;13.320;2023-04-01T22:00:25;4.30;99.90
16867;DHT22;8550;52.596;13.320;2023-04-01T22:05:32;4.20;99.90
16867;DHT22;8550;52.596;13.320;2023-04-01T22:10:41;4.20;99.90
16867;DHT22;8550;52.596;13.320;2023-04-01T22:15:55;4.30;99.90
16867;DHT22;8550;52.596;13.320;2023-04-01T22:21:07;4.20;99.90
16867;DHT22;8550;52.596;13.320;2023-04-01T22:26:17;4.20;99.90
16867;DHT22;8550;52.596;13.320;2023-04-01T22:31:27;4.30;99.90
16867;DHT22;8550;52.596;13.320;2023-04-01T22:36:36;4.30;99.90
16867;DHT22;8550;52.596;13.320;2023-04-01T22:41:51;4.20;99.90
16867;DHT22;8550;52.596;13.320;2023-04-01T22:47:03;4.20;99.90
16867;DHT22;8550;52.596;13.320;2023-04-01T22:52:13;4.20;99.90
16867;DHT22;8550;52.596;13.320;2023-04-01T22:57:35;4.20;99.90
16867;DHT22;8550;52.596;13.320;2023-04-01T23:02:40;4.20;99.90
16867;DHT22;8550;52.596;13.320;2023-04-01T23:07:48;4.20;99.90
16867;DHT22;8550;52.596;13.320;2023-04-01T23:12:56;4.10;99.90
16867;DHT22;8550;52.596;13.320;2023-04-01T23:18:09;4.10;99.90
16867;DHT22;8550;52.596;13.320;2023-04-01T23:23:26;4.10;99.90
16867;DHT22;8550;52.596;13.320;2023-04-01T23:28:45;4.10;99.90
16867;DHT22;8550;52.596;13.320;2023-04-01T23:33:53;4.10;99.90
16867;DHT22;8550;52.596;13.320;2023-04-01T23:38:55;4.10;99.90
16867;DHT22;8550;52.596;13.320;2023-04-01T23:44:02;4.00;99.90
16867;DHT22;8550;52.596;13.320;2023-04-01T23:49:11;4.00;99.90
16867;DHT22;8550;52.596;13.320;2023-04-01T23:54:18;4.00;99.90
16867;DHT22;8550;52.596;13.320;2023-04-01T23:59:30;4.00;99.90
